2AK4 weather

Public forecast

Using degrees Fahrenheit for public forecast. Weather courtesy of forecast.io.

Closest aviation weather report (METAR) to Bootleggers Cove Airport

Closest report is Seldovia Airport, 6.1 nm (11.3 km) WSW. Retrieved 2020/08/09 02:00 UTC (33 minutes ago):

PASO 090200Z AUTO 00000KT 7SM -RA FEW023 BKN034 OVC050 12/11 A2979 RMK AO2 P0000 T01220106 TSNO

Closest aviation forecast (TAF) to Bootleggers Cove Airport

Closest forecast is Homer Airport, 10.6 nm (19.6 km) N. Retrieved 2020-08-09 00:42 UTC (2 hours ago):

TAF PAHO 082339Z 0900/0924 22008KT P6SM VCSH OVC035 TEMPO 0900/0903 5SM SHRA FM090800 02008KT P6SM -RA SCT028 OVC035 FM091600 30010G15KT P6SM -SHRA SCT035 BKN050